createdAt,value
2016-09-09T00:00:15.162Z,0
2016-09-09T00:01:15.164Z,0
2016-09-09T00:02:15.462Z,0
2016-09-09T00:03:15.772Z,0
2016-09-09T00:04:15.451Z,0
2016-09-09T00:05:15.772Z,0
2016-09-09T00:06:15.127Z,0
2016-09-09T00:07:15.741Z,0
2016-09-09T00:08:15.112Z,0
2016-09-09T00:09:15.103Z,0
2016-09-09T00:10:15.402Z,0
2016-09-09T00:11:15.719Z,0
2016-09-09T00:12:15.706Z,0
2016-09-09T00:13:15.389Z,0
2016-09-09T00:14:15.062Z,0
2016-09-09T00:15:15.369Z,0
2016-09-09T00:16:15.363Z,0
2016-09-09T00:17:15.449Z,0
2016-09-09T00:18:15.343Z,0
2016-09-09T00:19:15.345Z,0
2016-09-09T00:20:15.016Z,0
2016-09-09T00:21:15.329Z,0
2016-09-09T00:22:15.001Z,0
2016-09-09T00:23:15.622Z,0
2016-09-09T00:24:15.305Z,0
2016-09-09T00:25:15.300Z,0
2016-09-09T00:26:15.599Z,0
2016-09-09T00:27:14.968Z,0
2016-09-09T00:28:15.271Z,0
2016-09-09T00:29:14.954Z,0
2016-09-09T00:30:15.256Z,0
2016-09-09T00:31:15.253Z,0
2016-09-09T00:32:15.243Z,0
2016-09-09T00:33:14.929Z,0
2016-09-09T00:34:14.923Z,0
2016-09-09T00:35:15.229Z,0
2016-09-09T00:36:14.901Z,0
2016-09-09T00:37:15.216Z,0
2016-09-09T00:38:15.204Z,0
2016-09-09T00:39:15.509Z,0
2016-09-09T00:40:14.873Z,0
2016-09-09T00:41:14.869Z,0
2016-09-09T00:42:15.168Z,0
2016-09-09T00:43:15.190Z,0
2016-09-09T00:44:15.164Z,0
2016-09-09T00:45:14.835Z,0
2016-09-09T00:46:14.825Z,0
2016-09-09T00:47:14.821Z,0
2016-09-09T00:48:14.825Z,0
2016-09-09T00:49:15.133Z,0
2016-09-09T00:50:15.115Z,0
2016-09-09T00:51:15.421Z,0
2016-09-09T00:52:14.782Z,0
2016-09-09T00:53:15.091Z,0
2016-09-09T00:54:15.393Z,0
2016-09-09T00:55:14.760Z,0
2016-09-09T00:56:15.388Z,0
2016-09-09T00:57:14.746Z,0
2016-09-09T00:58:14.746Z,0
2016-09-09T00:59:14.733Z,0
2016-09-09T01:00:15.044Z,0
2016-09-09T01:01:14.718Z,0
2016-09-09T01:02:14.711Z,0
2016-09-09T01:03:14.703Z,0
2016-09-09T01:04:14.700Z,0
2016-09-09T01:05:15.004Z,0
2016-09-09T01:06:14.694Z,0
2016-09-09T01:07:14.999Z,0
2016-09-09T01:08:14.679Z,0
2016-09-09T01:09:14.664Z,0
2016-09-09T01:10:14.652Z,0
2016-09-09T01:11:14.965Z,0
2016-09-09T01:12:14.634Z,0
2016-09-09T01:13:14.639Z,0
2016-09-09T01:14:14.622Z,0
2016-09-09T01:15:14.933Z,0
2016-09-09T01:16:14.916Z,0
2016-09-09T01:17:14.910Z,0
2016-09-09T01:18:14.591Z,0
2016-09-09T01:19:14.909Z,0
2016-09-09T01:20:14.887Z,0
2016-09-09T01:21:14.884Z,0
2016-09-09T01:22:14.873Z,0
2016-09-09T01:23:14.889Z,0
2016-09-09T01:24:14.865Z,0
2016-09-09T01:25:14.880Z,0
2016-09-09T01:26:14.850Z,0
2016-09-09T01:27:14.845Z,0
2016-09-09T01:28:14.516Z,0
2016-09-09T01:29:14.828Z,0
2016-09-09T01:30:14.503Z,0
2016-09-09T01:31:14.493Z,0
2016-09-09T01:32:14.495Z,0
2016-09-09T01:33:14.476Z,0
2016-09-09T01:34:14.792Z,0
2016-09-09T01:35:14.459Z,0
2016-09-09T01:36:14.463Z,0
2016-09-09T01:37:14.757Z,0
2016-09-09T01:38:15.069Z,0
2016-09-09T01:39:14.749Z,0
2016-09-09T01:40:14.743Z,0
2016-09-09T01:41:14.730Z,0
2016-09-09T01:42:14.729Z,0
2016-09-09T01:43:14.402Z,0
2016-09-09T01:44:14.398Z,0
2016-09-09T01:45:14.389Z,0
2016-09-09T01:46:15.012Z,0
2016-09-09T01:47:14.699Z,0
2016-09-09T01:48:14.690Z,0
2016-09-09T01:49:14.986Z,0
2016-09-09T01:50:14.665Z,0
2016-09-09T01:51:14.344Z,0
2016-09-09T01:52:14.965Z,0
2016-09-09T01:53:14.645Z,0
2016-09-09T01:54:14.329Z,0
2016-09-09T01:55:14.313Z,0
2016-09-09T01:56:14.311Z,0
2016-09-09T01:57:14.925Z,0
2016-09-09T01:58:14.295Z,0
2016-09-09T01:59:14.605Z,0
2016-09-09T02:00:14.286Z,0
2016-09-09T02:01:14.266Z,0
2016-09-09T02:02:14.263Z,0
2016-09-09T02:03:14.565Z,0
2016-09-09T02:04:14.250Z,0
2016-09-09T02:05:14.551Z,0
2016-09-09T02:06:14.563Z,0
2016-09-09T02:07:14.221Z,0
2016-09-09T02:08:14.217Z,0
2016-09-09T02:09:14.520Z,0
2016-09-09T02:10:14.514Z,0
2016-09-09T02:11:14.193Z,0
2016-09-09T02:12:14.195Z,0
2016-09-09T02:13:15.126Z,0
2016-09-09T02:14:14.174Z,0
2016-09-09T02:15:14.168Z,0
2016-09-09T02:16:14.469Z,0
2016-09-09T02:17:14.778Z,0
2016-09-09T02:18:14.347Z,0
2016-09-09T02:19:14.143Z,0
2016-09-09T02:20:14.438Z,0
2016-09-09T02:21:14.124Z,0
2016-09-09T02:22:14.426Z,0
2016-09-09T02:23:14.104Z,0
2016-09-09T02:24:14.101Z,0
2016-09-09T02:25:14.093Z,0
2016-09-09T02:26:14.400Z,0
2016-09-09T02:27:14.080Z,0
2016-09-09T02:28:14.082Z,0
2016-09-09T02:29:14.055Z,0
2016-09-09T02:30:14.057Z,0
2016-09-09T02:31:14.668Z,0
2016-09-09T02:32:14.352Z,0
2016-09-09T02:33:14.657Z,0
2016-09-09T02:34:14.338Z,0
2016-09-09T02:35:14.016Z,0
2016-09-09T02:36:14.319Z,0
2016-09-09T02:37:14.319Z,0
2016-09-09T02:38:13.995Z,0
2016-09-09T02:39:14.306Z,0
2016-09-09T02:40:14.287Z,0
2016-09-09T02:41:14.595Z,0
2016-09-09T02:42:14.898Z,0
2016-09-09T02:43:14.277Z,0
2016-09-09T02:44:13.948Z,0
2016-09-09T02:45:14.568Z,0
2016-09-09T02:46:13.930Z,0
2016-09-09T02:47:14.238Z,0
2016-09-09T02:48:13.929Z,0
2016-09-09T02:49:13.901Z,0
2016-09-09T02:50:14.222Z,0
2016-09-09T02:51:14.199Z,0
2016-09-09T02:52:13.885Z,0
2016-09-09T02:53:14.510Z,0
2016-09-09T02:54:13.872Z,0
2016-09-09T02:55:14.172Z,0
2016-09-09T02:56:13.866Z,0
2016-09-09T02:57:13.846Z,0
2016-09-09T02:58:14.151Z,0
2016-09-09T02:59:13.830Z,0
2016-09-09T03:00:14.136Z,0
2016-09-09T03:01:13.813Z,0
2016-09-09T03:02:13.807Z,0
2016-09-09T03:03:14.108Z,0
2016-09-09T03:04:14.108Z,0
2016-09-09T03:05:13.778Z,0
2016-09-09T03:06:14.083Z,0
2016-09-09T03:07:14.081Z,0
2016-09-09T03:08:13.752Z,0
2016-09-09T03:09:13.750Z,0
2016-09-09T03:10:13.740Z,0
2016-09-09T03:11:14.046Z,0
2016-09-09T03:12:13.718Z,0
2016-09-09T03:13:13.731Z,0
2016-09-09T03:14:13.704Z,0
2016-09-09T03:15:13.702Z,0
2016-09-09T03:16:13.693Z,0
2016-09-09T03:17:13.685Z,0
2016-09-09T03:18:13.677Z,0
2016-09-09T03:19:13.679Z,0
2016-09-09T03:20:13.662Z,0
2016-09-09T03:21:13.965Z,0
2016-09-09T03:22:13.650Z,0
2016-09-09T03:23:13.634Z,0
2016-09-09T03:24:13.668Z,0
2016-09-09T03:25:13.938Z,0
2016-09-09T03:26:13.925Z,0
2016-09-09T03:27:13.604Z,0
2016-09-09T03:28:13.600Z,0
2016-09-09T03:29:13.593Z,0
2016-09-09T03:30:14.524Z,0
2016-09-09T03:31:13.882Z,0
2016-09-09T03:32:13.914Z,0
2016-09-09T03:33:13.864Z,0
2016-09-09T03:34:13.861Z,0
2016-09-09T03:35:13.859Z,0
2016-09-09T03:36:13.534Z,0
2016-09-09T03:37:13.525Z,0
2016-09-09T03:38:13.519Z,0
2016-09-09T03:39:13.511Z,0
2016-09-09T03:40:13.512Z,0
2016-09-09T03:41:13.809Z,0
2016-09-09T03:42:14.112Z,0
2016-09-09T03:43:13.794Z,0
2016-09-09T03:44:13.463Z,0
2016-09-09T03:45:13.779Z,0
2016-09-09T03:46:13.767Z,0
2016-09-09T03:47:13.447Z,0
2016-09-09T03:48:13.434Z,0
2016-09-09T03:49:13.433Z,0
2016-09-09T03:50:13.429Z,0
2016-09-09T03:51:14.041Z,0
2016-09-09T03:52:13.412Z,0
2016-09-09T03:53:13.713Z,0
2016-09-09T03:54:13.710Z,0
2016-09-09T03:55:13.711Z,0
2016-09-09T03:56:13.377Z,0
2016-09-09T03:57:13.369Z,0
2016-09-09T03:58:13.678Z,0
2016-09-09T03:59:13.359Z,0
2016-09-09T04:00:13.349Z,0
2016-09-09T04:01:13.384Z,0
2016-09-09T04:02:13.334Z,0
2016-09-09T04:03:13.330Z,0
2016-09-09T04:04:13.630Z,0
2016-09-09T04:05:13.310Z,0
2016-09-09T04:06:13.300Z,0
2016-09-09T04:07:13.310Z,0
2016-09-09T04:08:13.275Z,0
2016-09-09T04:09:13.276Z,0
2016-09-09T04:10:13.888Z,0
2016-09-09T04:11:13.254Z,0
2016-09-09T04:12:13.870Z,0
2016-09-09T04:13:13.249Z,0
2016-09-09T04:14:13.228Z,0
2016-09-09T04:15:13.242Z,0
2016-09-09T04:16:13.215Z,0
2016-09-09T04:17:13.219Z,0
2016-09-09T04:18:13.397Z,0
2016-09-09T04:19:13.207Z,0
2016-09-09T04:20:13.493Z,0
2016-09-09T04:21:13.171Z,0
2016-09-09T04:22:13.162Z,0
2016-09-09T04:23:13.467Z,0
2016-09-09T04:24:13.153Z,0
2016-09-09T04:25:13.451Z,0
2016-09-09T04:26:13.132Z,4
2016-09-09T04:27:13.428Z,0
2016-09-09T04:28:13.429Z,0
2016-09-09T04:29:13.418Z,4
2016-09-09T04:30:13.099Z,4
2016-09-09T04:31:13.416Z,4
2016-09-09T04:32:14.047Z,4
2016-09-09T04:33:13.449Z,4
2016-09-09T04:34:13.074Z,8
2016-09-09T04:35:13.371Z,8
2016-09-09T04:36:13.056Z,8
2016-09-09T04:37:13.358Z,8
2016-09-09T04:38:13.042Z,12
2016-09-09T04:39:13.346Z,12
2016-09-09T04:40:13.376Z,16
2016-09-09T04:41:13.016Z,20
2016-09-09T04:42:13.313Z,20
2016-09-09T04:43:13.622Z,24
2016-09-09T04:44:12.983Z,28
2016-09-09T04:45:12.984Z,32
2016-09-09T04:46:12.969Z,36
2016-09-09T04:47:13.298Z,40
2016-09-09T04:48:12.963Z,44
2016-09-09T04:49:13.263Z,48
2016-09-09T04:50:13.247Z,56
2016-09-09T04:51:12.939Z,64
2016-09-09T04:52:12.922Z,68
2016-09-09T04:53:13.218Z,72
2016-09-09T04:54:13.218Z,80
2016-09-09T04:55:13.223Z,92
2016-09-09T04:56:13.201Z,96
2016-09-09T04:57:13.191Z,108
2016-09-09T04:58:13.183Z,120
2016-09-09T04:59:12.856Z,136
2016-09-09T05:00:12.851Z,144
2016-09-09T05:01:12.838Z,160
2016-09-09T05:02:13.149Z,168
2016-09-09T05:03:12.826Z,176
2016-09-09T05:04:12.825Z,184
2016-09-09T05:05:12.810Z,196
2016-09-09T05:06:12.802Z,208
2016-09-09T05:07:13.112Z,220
2016-09-09T05:08:12.802Z,236
2016-09-09T05:09:12.783Z,256
2016-09-09T05:10:12.770Z,276
2016-09-09T05:11:13.072Z,300
2016-09-09T05:12:13.069Z,332
2016-09-09T05:13:12.748Z,368
2016-09-09T05:14:13.042Z,404
2016-09-09T05:15:12.762Z,440
2016-09-09T05:16:13.033Z,468
2016-09-09T05:17:12.730Z,488
2016-09-09T05:18:12.710Z,504
2016-09-09T05:19:13.017Z,512
2016-09-09T05:20:12.695Z,516
2016-09-09T05:21:12.674Z,512
2016-09-09T05:22:12.668Z,488
2016-09-09T05:23:12.665Z,480
2016-09-09T05:24:12.654Z,456
2016-09-09T05:25:12.645Z,432
2016-09-09T05:26:12.955Z,436
2016-09-09T05:27:12.627Z,452
2016-09-09T05:28:12.936Z,476
2016-09-09T05:29:12.611Z,504
2016-09-09T05:30:13.243Z,520
2016-09-09T05:31:12.608Z,532
2016-09-09T05:32:12.589Z,588
2016-09-09T05:33:12.577Z,596
2016-09-09T05:34:12.576Z,508
2016-09-09T05:35:12.881Z,508
2016-09-09T05:36:12.554Z,528
2016-09-09T05:37:12.562Z,580
2016-09-09T05:38:12.864Z,672
2016-09-09T05:39:12.533Z,744
2016-09-09T05:40:12.523Z,740
2016-09-09T05:41:12.520Z,584
2016-09-09T05:42:12.828Z,568
2016-09-09T05:43:12.812Z,616
2016-09-09T05:44:12.823Z,744
2016-09-09T05:45:12.484Z,896
2016-09-09T05:46:12.789Z,988
2016-09-09T05:47:12.469Z,1056
2016-09-09T05:48:12.465Z,1156
2016-09-09T05:49:12.449Z,1208
2016-09-09T05:50:12.446Z,1256
2016-09-09T05:51:12.749Z,1308
2016-09-09T05:52:12.738Z,1252
2016-09-09T05:53:12.423Z,1216
2016-09-09T05:54:12.412Z,1240
2016-09-09T05:55:12.415Z,1248
2016-09-09T05:56:12.401Z,1300
2016-09-09T05:57:13.061Z,1352
2016-09-09T05:58:13.005Z,1420
2016-09-09T05:59:12.375Z,1444
2016-09-09T06:00:12.985Z,1500
2016-09-09T06:01:12.363Z,1600
2016-09-09T06:02:12.351Z,1612
2016-09-09T06:03:12.652Z,1644
2016-09-09T06:04:12.329Z,1664
2016-09-09T06:05:12.329Z,1652
2016-09-09T06:06:12.630Z,1744
2016-09-09T06:07:12.310Z,1816
2016-09-09T06:08:12.618Z,1880
2016-09-09T06:09:12.601Z,1932
2016-09-09T06:10:12.282Z,1936
2016-09-09T06:11:12.275Z,1828
2016-09-09T06:12:12.267Z,1732
2016-09-09T06:13:12.257Z,1636
2016-09-09T06:14:12.251Z,1760
2016-09-09T06:15:12.865Z,1984
2016-09-09T06:16:12.233Z,2028
2016-09-09T06:17:12.853Z,2040
2016-09-09T06:18:12.426Z,2016
2016-09-09T06:19:12.209Z,2020
2016-09-09T06:20:12.201Z,2092
2016-09-09T06:21:12.516Z,2108
2016-09-09T06:22:12.501Z,2068
2016-09-09T06:23:12.177Z,1960
2016-09-09T06:24:12.494Z,1940
2016-09-09T06:25:12.477Z,2040
2016-09-09T06:26:12.148Z,2044
2016-09-09T06:27:12.859Z,2008
2016-09-09T06:28:12.139Z,1948
2016-09-09T06:29:12.131Z,1952
2016-09-09T06:30:12.138Z,2052
2016-09-09T06:31:12.120Z,2172
2016-09-09T06:32:12.432Z,2248
2016-09-09T06:33:12.109Z,2364
2016-09-09T06:34:12.088Z,2388
2016-09-09T06:35:12.402Z,2360
2016-09-09T06:36:12.085Z,2372
2016-09-09T06:37:12.698Z,2380
2016-09-09T06:38:12.375Z,2324
2016-09-09T06:39:12.372Z,2284
2016-09-09T06:40:12.371Z,2244
2016-09-09T06:41:12.034Z,2148
2016-09-09T06:42:12.356Z,2104
2016-09-09T06:43:12.332Z,2160
2016-09-09T06:44:12.339Z,2292
2016-09-09T06:45:12.002Z,2488
2016-09-09T06:46:11.997Z,2680
2016-09-09T06:47:11.986Z,2928
2016-09-09T06:48:11.983Z,3224
2016-09-09T06:49:12.295Z,3344
2016-09-09T06:50:12.279Z,3300
2016-09-09T06:51:11.964Z,3320
2016-09-09T06:52:11.970Z,3400
2016-09-09T06:53:12.270Z,3424
2016-09-09T06:54:11.933Z,3496
2016-09-09T06:55:11.927Z,3556
2016-09-09T06:56:12.557Z,3612
2016-09-09T06:57:12.231Z,3516
2016-09-09T06:58:11.911Z,3484
2016-09-09T06:59:12.218Z,3600
2016-09-09T07:00:11.894Z,3540
2016-09-09T07:01:11.887Z,3388
2016-09-09T07:02:11.879Z,3288
2016-09-09T07:03:12.071Z,3292
2016-09-09T07:04:11.853Z,3416
2016-09-09T07:05:11.852Z,3552
2016-09-09T07:06:12.149Z,3644
2016-09-09T07:07:12.150Z,3828
2016-09-09T07:08:12.140Z,4020
2016-09-09T07:09:11.819Z,4252
2016-09-09T07:10:12.120Z,4716
2016-09-09T07:11:12.122Z,5200
2016-09-09T07:12:11.805Z,5452
2016-09-09T07:13:11.786Z,5640
2016-09-09T07:14:11.776Z,5852
2016-09-09T07:15:11.775Z,6044
2016-09-09T07:16:11.762Z,6060
2016-09-09T07:17:11.760Z,6008
2016-09-09T07:18:11.758Z,5744
2016-09-09T07:19:12.373Z,5456
2016-09-09T07:20:11.738Z,5468
2016-09-09T07:21:11.732Z,5684
2016-09-09T07:22:11.725Z,5932
2016-09-09T07:23:11.713Z,6296
2016-09-09T07:24:11.707Z,6780
2016-09-09T07:25:11.706Z,6984
2016-09-09T07:26:11.696Z,6948
2016-09-09T07:27:11.693Z,6980
2016-09-09T07:28:11.681Z,6988
2016-09-09T07:29:11.676Z,6872
2016-09-09T07:30:11.983Z,7140
2016-09-09T07:31:11.657Z,7208
2016-09-09T07:32:11.649Z,7244
2016-09-09T07:33:11.957Z,7080
2016-09-09T07:34:11.957Z,6928
2016-09-09T07:35:11.629Z,7044
2016-09-09T07:36:11.627Z,6800
2016-09-09T07:37:11.627Z,6696
2016-09-09T07:38:11.610Z,6240
2016-09-09T07:39:11.607Z,5576
2016-09-09T07:40:11.597Z,5008
2016-09-09T07:41:11.586Z,4724
2016-09-09T07:42:11.579Z,4612
2016-09-09T07:43:11.572Z,4548
2016-09-09T07:44:11.572Z,3584
2016-09-09T07:45:11.559Z,4808
2016-09-09T07:46:11.568Z,4924
2016-09-09T07:47:11.557Z,5056
2016-09-09T07:48:11.558Z,5248
2016-09-09T07:49:11.847Z,5704
2016-09-09T07:50:11.527Z,6264
2016-09-09T07:51:11.516Z,6516
2016-09-09T07:52:11.828Z,5964
2016-09-09T07:53:11.507Z,5288
2016-09-09T07:54:11.824Z,4976
2016-09-09T07:55:11.486Z,5256
2016-09-09T07:56:11.492Z,5620
2016-09-09T07:57:11.477Z,5660
2016-09-09T07:58:11.787Z,5608
2016-09-09T07:59:11.460Z,5948
2016-09-09T08:00:11.778Z,6480
2016-09-09T08:01:11.454Z,7072
2016-09-09T08:02:11.451Z,7512
2016-09-09T08:03:11.754Z,7820
2016-09-09T08:04:11.434Z,7688
2016-09-09T08:05:11.735Z,8032
2016-09-09T08:06:11.417Z,7584
2016-09-09T08:07:11.718Z,7336
2016-09-09T08:08:11.721Z,7584
2016-09-09T08:09:11.393Z,7752
2016-09-09T08:10:11.702Z,10436
2016-09-09T08:11:11.705Z,11324
2016-09-09T08:12:11.374Z,10316
2016-09-09T08:13:11.693Z,10548
2016-09-09T08:14:11.684Z,8016
2016-09-09T08:15:11.351Z,7172
2016-09-09T08:16:11.357Z,7600
2016-09-09T08:17:11.345Z,8200
2016-09-09T08:18:11.567Z,8444
2016-09-09T08:19:11.673Z,7996
2016-09-09T08:20:12.006Z,7720
2016-09-09T08:21:11.317Z,7156
2016-09-09T08:22:11.323Z,7016
2016-09-09T08:23:11.301Z,6792
2016-09-09T08:24:11.294Z,6604
2016-09-09T08:25:11.294Z,6476
2016-09-09T08:26:11.289Z,5936
2016-09-09T08:27:11.281Z,5788
2016-09-09T08:28:11.604Z,5752
2016-09-09T08:29:11.356Z,5840
2016-09-09T08:30:11.576Z,6000
2016-09-09T08:31:11.886Z,6068
2016-09-09T08:32:11.560Z,6124
2016-09-09T08:33:11.571Z,6036
2016-09-09T08:34:11.241Z,6048
2016-09-09T08:35:11.551Z,6132
2016-09-09T08:36:11.220Z,6072
2016-09-09T08:37:11.533Z,6040
2016-09-09T08:38:11.532Z,6356
2016-09-09T08:39:11.517Z,6560
2016-09-09T08:40:11.199Z,6972
2016-09-09T08:41:11.523Z,7532
2016-09-09T08:42:11.811Z,7740
2016-09-09T08:43:11.501Z,8396
2016-09-09T08:44:11.484Z,9360
2016-09-09T08:45:11.482Z,9444
2016-09-09T08:46:11.494Z,10344
2016-09-09T08:47:11.165Z,9864
2016-09-09T08:48:11.153Z,8580
2016-09-09T08:49:11.455Z,9420
2016-09-09T08:50:11.139Z,8068
2016-09-09T08:51:11.445Z,5496
2016-09-09T08:52:11.122Z,5348
2016-09-09T08:53:11.428Z,6600
2016-09-09T08:54:11.116Z,6620
2016-09-09T08:55:11.419Z,6844
2016-09-09T08:56:11.423Z,6812
2016-09-09T08:57:11.092Z,6744
2016-09-09T08:58:11.085Z,6720
2016-09-09T08:59:11.408Z,6908
2016-09-09T09:00:11.076Z,6776
2016-09-09T09:01:11.103Z,6892
2016-09-09T09:02:11.065Z,7072
2016-09-09T09:03:11.372Z,7112
2016-09-09T09:04:11.050Z,6916
2016-09-09T09:05:11.051Z,6728
2016-09-09T09:06:11.037Z,6996
2016-09-09T09:07:11.660Z,7168
2016-09-09T09:08:11.030Z,7104
2016-09-09T09:09:11.022Z,7036
2016-09-09T09:10:11.330Z,6492
2016-09-09T09:11:11.639Z,6712
2016-09-09T09:12:10.995Z,6920
2016-09-09T09:13:11.310Z,7444
2016-09-09T09:14:11.302Z,7424
2016-09-09T09:15:10.991Z,7564
2016-09-09T09:16:10.983Z,7284
2016-09-09T09:17:10.974Z,6696
2016-09-09T09:18:11.592Z,6676
2016-09-09T09:19:10.958Z,6640
2016-09-09T09:20:11.263Z,6624
2016-09-09T09:21:11.259Z,6752
2016-09-09T09:22:11.877Z,6644
2016-09-09T09:23:11.578Z,6644
2016-09-09T09:24:10.932Z,6388
2016-09-09T09:25:11.546Z,6360
2016-09-09T09:26:11.533Z,6280
2016-09-09T09:27:11.232Z,6296
2016-09-09T09:28:11.209Z,6408
2016-09-09T09:29:10.896Z,6456
2016-09-09T09:30:11.202Z,6444
2016-09-09T09:31:11.208Z,6356
2016-09-09T09:32:11.181Z,6268
2016-09-09T09:33:10.871Z,6392
2016-09-09T09:34:10.860Z,6932
2016-09-09T09:35:11.482Z,7616
2016-09-09T09:36:10.846Z,7484
2016-09-09T09:37:11.167Z,7956
2016-09-09T09:38:11.147Z,7876
2016-09-09T09:39:10.855Z,7464
2016-09-09T09:40:11.140Z,7616
2016-09-09T09:41:10.827Z,8388
2016-09-09T09:42:11.441Z,8760
2016-09-09T09:43:10.809Z,8964
2016-09-09T09:44:10.803Z,9292
2016-09-09T09:45:10.797Z,8980
2016-09-09T09:46:10.787Z,8536
2016-09-09T09:47:10.784Z,8516
2016-09-09T09:48:11.086Z,8084
2016-09-09T09:49:10.782Z,8328
2016-09-09T09:50:10.770Z,9056
2016-09-09T09:51:10.757Z,8168
2016-09-09T09:52:11.074Z,8052
2016-09-09T09:53:11.059Z,7512
2016-09-09T09:54:11.058Z,6588
2016-09-09T09:55:10.729Z,6508
2016-09-09T09:56:10.735Z,6884
2016-09-09T09:57:10.722Z,8144
2016-09-09T09:58:10.776Z,7544
2016-09-09T09:59:11.022Z,7872
2016-09-09T10:00:11.020Z,10840
2016-09-09T10:01:11.014Z,10020
2016-09-09T10:02:10.696Z,10036
2016-09-09T10:03:10.683Z,8056
2016-09-09T10:04:10.704Z,8644
2016-09-09T10:05:10.674Z,11264
2016-09-09T10:06:10.669Z,9944
2016-09-09T10:07:10.978Z,10128
2016-09-09T10:08:10.979Z,10216
2016-09-09T10:09:10.964Z,10488
2016-09-09T10:10:10.963Z,14756
2016-09-09T10:11:10.960Z,24576
2016-09-09T10:12:10.653Z,31936
2016-09-09T10:13:10.941Z,21888
2016-09-09T10:14:10.942Z,12948
2016-09-09T10:15:10.935Z,10176
2016-09-09T10:16:10.618Z,9808
2016-09-09T10:17:10.922Z,8196
2016-09-09T10:18:10.809Z,7252
2016-09-09T10:19:10.607Z,7332
2016-09-09T10:20:10.910Z,8108
2016-09-09T10:21:10.589Z,7820
2016-09-09T10:22:11.228Z,8384
2016-09-09T10:23:10.580Z,9388
2016-09-09T10:24:10.573Z,8984
2016-09-09T10:25:10.571Z,10960
2016-09-09T10:26:10.562Z,10556
2016-09-09T10:27:10.561Z,11596
2016-09-09T10:28:10.869Z,11584
2016-09-09T10:29:10.545Z,9752
2016-09-09T10:30:10.541Z,10868
2016-09-09T10:31:10.850Z,9020
2016-09-09T10:32:10.530Z,9388
2016-09-09T10:33:10.847Z,9640
2016-09-09T10:34:11.153Z,10188
2016-09-09T10:35:10.514Z,10256
2016-09-09T10:36:10.506Z,9608
2016-09-09T10:37:10.504Z,8776
2016-09-09T10:38:10.824Z,10128
2016-09-09T10:39:10.497Z,12464
2016-09-09T10:40:10.808Z,19008
2016-09-09T10:41:10.499Z,17088
2016-09-09T10:42:10.793Z,13436
2016-09-09T10:43:10.474Z,16604
2016-09-09T10:44:10.778Z,15772
2016-09-09T10:45:10.774Z,14668
2016-09-09T10:46:10.448Z,10752
2016-09-09T10:47:10.765Z,11240
2016-09-09T10:48:10.441Z,11944
2016-09-09T10:49:10.754Z,14724
2016-09-09T10:50:10.432Z,13216
2016-09-09T10:51:10.742Z,11300
2016-09-09T10:52:10.737Z,13284
2016-09-09T10:53:10.418Z,13364
2016-09-09T10:54:10.409Z,10292
2016-09-09T10:55:10.413Z,13852
2016-09-09T10:56:10.400Z,14996
2016-09-09T10:57:10.397Z,12452
2016-09-09T10:58:10.389Z,11920
2016-09-09T10:59:10.702Z,27328
2016-09-09T11:00:10.384Z,17504
2016-09-09T11:01:10.382Z,11896
2016-09-09T11:02:10.385Z,33408
2016-09-09T11:03:10.697Z,49312
2016-09-09T11:04:10.373Z,60800
2016-09-09T11:05:10.361Z,48832
2016-09-09T11:06:10.359Z,32352
2016-09-09T11:07:10.362Z,34592
2016-09-09T11:08:10.659Z,66016
2016-09-09T11:09:10.344Z,58400
2016-09-09T11:10:10.350Z,54048
2016-09-09T11:11:10.660Z,52640
2016-09-09T11:12:10.335Z,55360
2016-09-09T11:13:10.352Z,58976
2016-09-09T11:14:10.335Z,66400
2016-09-09T11:15:10.327Z,71008
2016-09-09T11:16:10.648Z,77760
2016-09-09T11:17:10.320Z,82944
2016-09-09T11:18:10.324Z,80960
2016-09-09T11:19:10.319Z,74176
2016-09-09T11:20:10.641Z,69728
2016-09-09T11:21:10.323Z,64640
2016-09-09T11:22:10.317Z,62272
2016-09-09T11:23:10.324Z,62112
2016-09-09T11:24:10.320Z,64320
2016-09-09T11:25:10.636Z,66688
2016-09-09T11:26:10.633Z,65344
2016-09-09T11:27:10.321Z,65184
2016-09-09T11:28:10.319Z,63456
2016-09-09T11:29:10.712Z,61600
2016-09-09T11:30:10.678Z,58432
2016-09-09T11:31:10.342Z,60544
2016-09-09T11:32:10.339Z,62432
2016-09-09T11:33:10.672Z,65408
2016-09-09T11:34:10.334Z,71648
2016-09-09T11:35:10.334Z,75904
2016-09-09T11:36:10.342Z,77920
2016-09-09T11:37:10.962Z,79328
2016-09-09T11:38:10.339Z,78944
2016-09-09T11:39:10.349Z,79008
2016-09-09T11:40:10.347Z,80224
2016-09-09T11:41:10.660Z,81152
2016-09-09T11:42:10.977Z,81120
2016-09-09T11:43:10.670Z,79200
2016-09-09T11:44:10.987Z,79328
2016-09-09T11:45:10.358Z,72320
2016-09-09T11:46:10.671Z,13568
2016-09-09T11:47:11.011Z,63008
2016-09-09T11:48:10.686Z,70112
2016-09-09T11:49:10.374Z,67840
2016-09-09T11:50:10.695Z,65760
2016-09-09T11:51:11.011Z,66656
2016-09-09T11:52:10.684Z,65312
2016-09-09T11:53:10.694Z,64192
2016-09-09T11:54:10.688Z,28480
2016-09-09T11:55:11.014Z,54784
2016-09-09T11:56:10.382Z,64896
2016-09-09T11:57:10.390Z,69472
2016-09-09T11:58:10.440Z,71808
2016-09-09T11:59:10.391Z,79136
2016-09-09T12:00:10.401Z,83840
2016-09-09T12:01:10.397Z,87552
2016-09-09T12:02:11.027Z,87584
2016-09-09T12:03:10.424Z,85120
2016-09-09T12:04:11.040Z,83232
2016-09-09T12:05:10.741Z,82528
2016-09-09T12:06:10.409Z,81728
2016-09-09T12:07:10.415Z,82240
2016-09-09T12:08:10.413Z,83552
2016-09-09T12:09:10.433Z,84672
2016-09-09T12:10:10.420Z,85216
2016-09-09T12:11:10.745Z,82400
2016-09-09T12:12:10.439Z,80576
2016-09-09T12:13:10.849Z,81824
2016-09-09T12:14:10.439Z,84128
2016-09-09T12:15:10.444Z,83744
2016-09-09T12:16:10.763Z,83488
2016-09-09T12:17:10.451Z,82720
2016-09-09T12:18:10.978Z,79136
2016-09-09T12:19:10.769Z,76480
2016-09-09T12:20:10.806Z,75808
2016-09-09T12:21:10.475Z,33088
2016-09-09T12:22:10.474Z,18336
2016-09-09T12:23:10.491Z,19552
2016-09-09T12:24:11.103Z,72480
2016-09-09T12:25:11.112Z,70016
2016-09-09T12:26:10.480Z,76000
2016-09-09T12:27:10.478Z,78656
2016-09-09T12:28:11.120Z,77728
2016-09-09T12:29:11.133Z,80128
2016-09-09T12:30:10.817Z,82752
2016-09-09T12:31:10.817Z,88160
2016-09-09T12:32:11.123Z,88640
2016-09-09T12:33:11.138Z,87840
2016-09-09T12:34:10.501Z,86944
2016-09-09T12:35:10.511Z,84128
2016-09-09T12:36:10.509Z,80672
2016-09-09T12:37:10.528Z,75072
2016-09-09T12:38:10.518Z,74528
2016-09-09T12:39:10.849Z,80512
2016-09-09T12:40:10.866Z,83808
2016-09-09T12:41:10.535Z,88064
2016-09-09T12:42:10.535Z,93248
2016-09-09T12:43:10.846Z,94528
2016-09-09T12:44:10.871Z,93856
2016-09-09T12:45:10.599Z,90400
2016-09-09T12:46:10.555Z,86976
2016-09-09T12:47:10.551Z,87296
2016-09-09T12:48:10.560Z,86336
2016-09-09T12:49:11.524Z,89184
2016-09-09T12:50:10.885Z,90336
2016-09-09T12:51:10.887Z,79808
2016-09-09T12:52:10.577Z,79648
2016-09-09T12:53:10.579Z,75776
2016-09-09T12:54:10.893Z,74464
2016-09-09T12:55:10.580Z,71040
2016-09-09T12:56:10.910Z,72928
2016-09-09T12:57:10.904Z,75616
2016-09-09T12:58:10.922Z,80640
2016-09-09T12:59:10.597Z,82592
2016-09-09T13:00:10.926Z,79680
2016-09-09T13:01:11.234Z,73184
2016-09-09T13:02:10.609Z,69696
2016-09-09T13:03:10.933Z,66784
2016-09-09T13:04:10.617Z,63712
2016-09-09T13:05:10.621Z,64896
2016-09-09T13:06:10.631Z,69408
2016-09-09T13:07:10.639Z,71840
2016-09-09T13:08:10.643Z,74240
2016-09-09T13:09:10.942Z,73184
2016-09-09T13:10:10.636Z,25696
2016-09-09T13:11:10.642Z,8052
2016-09-09T13:12:10.957Z,7244
2016-09-09T13:13:10.642Z,7572
2016-09-09T13:14:11.275Z,8980
2016-09-09T13:15:10.644Z,10808
2016-09-09T13:16:10.651Z,12624
2016-09-09T13:17:10.655Z,13716
2016-09-09T13:18:10.972Z,14316
2016-09-09T13:19:10.662Z,15728
2016-09-09T13:20:10.657Z,19392
2016-09-09T13:21:10.670Z,35296
2016-09-09T13:22:10.977Z,33152
2016-09-09T13:23:10.993Z,52480
2016-09-09T13:24:10.983Z,65632
2016-09-09T13:25:10.668Z,70624
2016-09-09T13:26:10.986Z,77664
2016-09-09T13:27:10.675Z,78592
2016-09-09T13:28:10.675Z,76768
2016-09-09T13:29:10.673Z,73568
2016-09-09T13:30:10.999Z,72320
2016-09-09T13:31:10.999Z,72256
2016-09-09T13:32:10.686Z,73280
2016-09-09T13:33:10.682Z,74144
2016-09-09T13:34:10.694Z,75456
2016-09-09T13:35:10.686Z,74336
2016-09-09T13:36:10.709Z,65216
2016-09-09T13:37:10.689Z,15120
2016-09-09T13:38:11.336Z,62400
2016-09-09T13:39:10.692Z,43904
2016-09-09T13:40:10.724Z,12780
2016-09-09T13:41:11.009Z,12452
2016-09-09T13:42:10.715Z,14808